sensor_id;sensor_type;location;lat;lon;timestamp;temperature;humidity
12386;DHT22;6257;57.634;18.310;2023-07-20T00:04:33;15.30;99.90
12386;DHT22;6257;57.634;18.310;2023-07-20T00:07:01;15.30;99.90
12386;DHT22;6257;57.634;18.310;2023-07-20T00:09:28;15.20;99.90
12386;DHT22;6257;57.634;18.310;2023-07-20T00:11:55;15.20;99.90
12386;DHT22;6257;57.634;18.310;2023-07-20T00:16:51;15.20;99.90
12386;DHT22;6257;57.634;18.310;2023-07-20T00:19:22;15.10;99.90
12386;DHT22;6257;57.634;18.310;2023-07-20T00:21:49;15.00;99.90
12386;DHT22;6257;57.634;18.310;2023-07-20T00:24:16;15.10;99.90
12386;DHT22;6257;57.634;18.310;2023-07-20T00:26:43;15.00;99.90
12386;DHT22;6257;57.634;18.310;2023-07-20T00:29:11;15.00;99.90
12386;DHT22;6257;57.634;18.310;2023-07-20T00:31:39;14.90;99.90
12386;DHT22;6257;57.634;18.310;2023-07-20T00:34:08;14.90;99.90
12386;DHT22;6257;57.634;18.310;2023-07-20T00:36:35;14.90;99.90
12386;DHT22;6257;57.634;18.310;2023-07-20T00:39:02;14.90;99.90
12386;DHT22;6257;57.634;18.310;2023-07-20T00:41:30;14.90;99.90
12386;DHT22;6257;57.634;18.310;2023-07-20T00:43:58;14.70;99.90
12386;DHT22;6257;57.634;18.310;2023-07-20T00:46:25;14.90;99.90
12386;DHT22;6257;57.634;18.310;2023-07-20T00:48:54;14.90;99.90
12386;DHT22;6257;57.634;18.310;2023-07-20T00:51:23;14.80;99.90
12386;DHT22;6257;57.634;18.310;2023-07-20T00:53:50;14.80;99.90
12386;DHT22;6257;57.634;18.310;2023-07-20T00:58:45;14.80;99.90
12386;DHT22;6257;57.634;18.310;2023-07-20T01:01:12;14.70;99.90
12386;DHT22;6257;57.634;18.310;2023-07-20T01:03:39;14.70;99.90
12386;DHT22;6257;57.634;18.310;2023-07-20T01:06:14;14.70;99.90
12386;DHT22;6257;57.634;18.310;2023-07-20T01:08:51;16.50;99.90
12386;DHT22;6257;57.634;18.310;2023-07-20T01:11:29;14.60;99.90
12386;DHT22;6257;57.634;18.310;2023-07-20T01:13:59;14.60;99.90
12386;DHT22;6257;57.634;18.310;2023-07-20T01:16:27;14.70;99.90
12386;DHT22;6257;57.634;18.310;2023-07-20T01:18:55;14.60;99.90
12386;DHT22;6257;57.634;18.310;2023-07-20T01:21:27;14.60;99.90
12386;DHT22;6257;57.634;18.310;2023-07-20T01:27:25;14.60;99.90
12386;DHT22;6257;57.634;18.310;2023-07-20T01:30:08;14.50;99.90
12386;DHT22;6257;57.634;18.310;2023-07-20T01:32:41;14.50;99.90
12386;DHT22;6257;57.634;18.310;2023-07-20T01:35:11;14.50;99.90
12386;DHT22;6257;57.634;18.310;2023-07-20T01:37:41;14.50;99.90
12386;DHT22;6257;57.634;18.310;2023-07-20T01:40:11;14.50;99.90
12386;DHT22;6257;57.634;18.310;2023-07-20T01:42:43;14.40;99.90
12386;DHT22;6257;57.634;18.310;2023-07-20T01:47:40;14.40;99.90
12386;DHT22;6257;57.634;18.310;2023-07-20T01:50:08;14.40;99.90
12386;DHT22;6257;57.634;18.310;2023-07-20T01:52:35;14.30;99.90
12386;DHT22;6257;57.634;18.310;2023-07-20T01:55:03;14.30;99.90
12386;DHT22;6257;57.634;18.310;2023-07-20T01:57:31;14.30;99.90
12386;DHT22;6257;57.634;18.310;2023-07-20T02:02:27;14.40;99.90
12386;DHT22;6257;57.634;18.310;2023-07-20T02:04:56;12.90;99.90
12386;DHT22;6257;57.634;18.310;2023-07-20T02:07:23;14.30;99.90
12386;DHT22;6257;57.634;18.310;2023-07-20T02:09:50;14.20;99.90
12386;DHT22;6257;57.634;18.310;2023-07-20T02:12:17;14.20;99.90
12386;DHT22;6257;57.634;18.310;2023-07-20T02:14:44;11.20;99.90
12386;DHT22;6257;57.634;18.310;2023-07-20T02:17:11;14.10;99.90
12386;DHT22;6257;57.634;18.310;2023-07-20T02:19:40;14.20;99.90
12386;DHT22;6257;57.634;18.310;2023-07-20T02:22:09;14.20;99.90
12386;DHT22;6257;57.634;18.310;2023-07-20T02:24:36;14.20;99.90
12386;DHT22;6257;57.634;18.310;2023-07-20T02:27:04;14.20;99.90
12386;DHT22;6257;57.634;18.310;2023-07-20T02:29:32;14.20;99.90
12386;DHT22;6257;57.634;18.310;2023-07-20T02:31:59;14.10;99.90
12386;DHT22;6257;57.634;18.310;2023-07-20T02:34:26;14.10;99.90
12386;DHT22;6257;57.634;18.310;2023-07-20T02:36:54;14.10;99.90
12386;DHT22;6257;57.634;18.310;2023-07-20T02:39:27;14.00;99.90
12386;DHT22;6257;57.634;18.310;2023-07-20T02:41:54;14.00;99.90
12386;DHT22;6257;57.634;18.310;2023-07-20T02:44:21;14.00;99.90
12386;DHT22;6257;57.634;18.310;2023-07-20T02:46:48;13.90;99.90
12386;DHT22;6257;57.634;18.310;2023-07-20T02:49:16;13.90;99.90
12386;DHT22;6257;57.634;18.310;2023-07-20T02:51:43;13.90;99.90
12386;DHT22;6257;57.634;18.310;2023-07-20T02:56:39;13.90;99.90
12386;DHT22;6257;57.634;18.310;2023-07-20T02:59:06;13.90;99.90
12386;DHT22;6257;57.634;18.310;2023-07-20T03:01:33;13.80;99.90
12386;DHT22;6257;57.634;18.310;2023-07-20T03:04:00;13.90;99.90
12386;DHT22;6257;57.634;18.310;2023-07-20T03:08:55;13.90;99.90
12386;DHT22;6257;57.634;18.310;2023-07-20T03:11:23;16.70;99.90
12386;DHT22;6257;57.634;18.310;2023-07-20T03:13:52;13.90;99.90
12386;DHT22;6257;57.634;18.310;2023-07-20T03:16:20;14.00;99.90
12386;DHT22;6257;57.634;18.310;2023-07-20T03:18:47;14.00;99.90
12386;DHT22;6257;57.634;18.310;2023-07-20T03:21:14;14.00;99.90
12386;DHT22;6257;57.634;18.310;2023-07-20T03:23:41;14.00;99.90
12386;DHT22;6257;57.634;18.310;2023-07-20T03:26:09;14.00;99.90
12386;DHT22;6257;57.634;18.310;2023-07-20T03:28:36;14.10;99.90
12386;DHT22;6257;57.634;18.310;2023-07-20T03:31:05;14.10;99.90
12386;DHT22;6257;57.634;18.310;2023-07-20T03:33:33;14.10;99.90
12386;DHT22;6257;57.634;18.310;2023-07-20T03:36:00;14.10;99.90
12386;DHT22;6257;57.634;18.310;2023-07-20T03:38:28;14.10;99.90
12386;DHT22;6257;57.634;18.310;2023-07-20T03:40:56;14.10;99.90
12386;DHT22;6257;57.634;18.310;2023-07-20T03:43:24;14.10;99.90
12386;DHT22;6257;57.634;18.310;2023-07-20T03:45:52;14.10;99.90
12386;DHT22;6257;57.634;18.310;2023-07-20T03:48:22;14.10;99.90
12386;DHT22;6257;57.634;18.310;2023-07-20T03:50:51;14.10;99.90
12386;DHT22;6257;57.634;18.310;2023-07-20T03:53:19;14.20;99.90
12386;DHT22;6257;57.634;18.310;2023-07-20T03:55:47;14.30;99.90
12386;DHT22;6257;57.634;18.310;2023-07-20T04:00:45;14.20;99.90
12386;DHT22;6257;57.634;18.310;2023-07-20T04:05:41;14.20;99.90
12386;DHT22;6257;57.634;18.310;2023-07-20T04:10:37;14.20;99.90
12386;DHT22;6257;57.634;18.310;2023-07-20T04:13:04;14.30;99.90
12386;DHT22;6257;57.634;18.310;2023-07-20T04:15:32;14.40;99.90
12386;DHT22;6257;57.634;18.310;2023-07-20T04:17:59;14.40;99.90
12386;DHT22;6257;57.634;18.310;2023-07-20T04:20:26;14.30;99.90
12386;DHT22;6257;57.634;18.310;2023-07-20T04:25:22;14.30;99.90
12386;DHT22;6257;57.634;18.310;2023-07-20T04:27:49;14.40;99.90
12386;DHT22;6257;57.634;18.310;2023-07-20T04:30:17;14.40;99.90
12386;DHT22;6257;57.634;18.310;2023-07-20T04:32:47;14.50;99.90
12386;DHT22;6257;57.634;18.310;2023-07-20T04:35:17;14.60;99.90
12386;DHT22;6257;57.634;18.310;2023-07-20T04:37:44;14.70;99.90
12386;DHT22;6257;57.634;18.310;2023-07-20T04:40:15;14.70;99.90
12386;DHT22;6257;57.634;18.310;2023-07-20T04:42:43;14.70;99.90
12386;DHT22;6257;57.634;18.310;2023-07-20T04:45:10;14.70;99.90
12386;DHT22;6257;57.634;18.310;2023-07-20T04:47:37;14.70;99.90
12386;DHT22;6257;57.634;18.310;2023-07-20T04:50:05;14.70;99.90
12386;DHT22;6257;57.634;18.310;2023-07-20T04:52:32;14.60;99.90
12386;DHT22;6257;57.634;18.310;2023-07-20T04:54:59;14.60;99.90
12386;DHT22;6257;57.634;18.310;2023-07-20T04:59:55;14.60;99.90
12386;DHT22;6257;57.634;18.310;2023-07-20T05:02:22;14.70;99.90
12386;DHT22;6257;57.634;18.310;2023-07-20T05:04:49;14.70;99.90
12386;DHT22;6257;57.634;18.310;2023-07-20T05:09:44;14.80;99.90
12386;DHT22;6257;57.634;18.310;2023-07-20T05:12:11;14.90;99.90
12386;DHT22;6257;57.634;18.310;2023-07-20T05:14:40;14.90;99.90
12386;DHT22;6257;57.634;18.310;2023-07-20T05:17:07;14.90;99.90
12386;DHT22;6257;57.634;18.310;2023-07-20T05:19:34;14.90;99.90
12386;DHT22;6257;57.634;18.310;2023-07-20T05:22:01;14.90;99.90
12386;DHT22;6257;57.634;18.310;2023-07-20T05:24:29;15.00;99.90
12386;DHT22;6257;57.634;18.310;2023-07-20T05:26:58;15.20;99.90
12386;DHT22;6257;57.634;18.310;2023-07-20T05:29:25;15.20;99.90
12386;DHT22;6257;57.634;18.310;2023-07-20T05:34:21;15.30;99.90
12386;DHT22;6257;57.634;18.310;2023-07-20T05:36:48;15.30;99.90
12386;DHT22;6257;57.634;18.310;2023-07-20T05:39:16;15.30;99.90
12386;DHT22;6257;57.634;18.310;2023-07-20T05:41:43;15.30;99.90
12386;DHT22;6257;57.634;18.310;2023-07-20T05:44:13;15.30;99.90
12386;DHT22;6257;57.634;18.310;2023-07-20T05:49:11;15.50;99.90
12386;DHT22;6257;57.634;18.310;2023-07-20T05:54:12;15.50;99.90
12386;DHT22;6257;57.634;18.310;2023-07-20T05:59:07;15.40;99.90
12386;DHT22;6257;57.634;18.310;2023-07-20T06:04:02;15.50;99.90
12386;DHT22;6257;57.634;18.310;2023-07-20T06:06:33;15.50;99.90
12386;DHT22;6257;57.634;18.310;2023-07-20T06:09:02;15.30;99.90
12386;DHT22;6257;57.634;18.310;2023-07-20T06:11:35;15.20;99.90
12386;DHT22;6257;57.634;18.310;2023-07-20T06:14:02;15.30;99.90
12386;DHT22;6257;57.634;18.310;2023-07-20T06:16:29;15.30;99.90
12386;DHT22;6257;57.634;18.310;2023-07-20T06:18:56;15.60;99.90
12386;DHT22;6257;57.634;18.310;2023-07-20T06:21:23;15.70;99.90
12386;DHT22;6257;57.634;18.310;2023-07-20T06:26:19;15.70;99.90
12386;DHT22;6257;57.634;18.310;2023-07-20T06:28:46;15.80;99.90
12386;DHT22;6257;57.634;18.310;2023-07-20T06:31:13;15.40;99.90
12386;DHT22;6257;57.634;18.310;2023-07-20T06:33:40;15.50;99.90
12386;DHT22;6257;57.634;18.310;2023-07-20T06:36:07;15.50;99.90
12386;DHT22;6257;57.634;18.310;2023-07-20T06:38:34;15.60;99.90
12386;DHT22;6257;57.634;18.310;2023-07-20T06:41:03;15.70;99.90
12386;DHT22;6257;57.634;18.310;2023-07-20T06:43:30;15.70;99.90
12386;DHT22;6257;57.634;18.310;2023-07-20T06:45:57;15.80;99.90
12386;DHT22;6257;57.634;18.310;2023-07-20T06:48:24;16.00;99.90
12386;DHT22;6257;57.634;18.310;2023-07-20T06:50:51;16.10;99.90
12386;DHT22;6257;57.634;18.310;2023-07-20T06:53:19;16.10;99.90
12386;DHT22;6257;57.634;18.310;2023-07-20T06:55:46;16.10;99.90
12386;DHT22;6257;57.634;18.310;2023-07-20T06:58:14;16.00;99.90
12386;DHT22;6257;57.634;18.310;2023-07-20T07:00:42;15.90;99.90
12386;DHT22;6257;57.634;18.310;2023-07-20T07:03:09;15.90;99.90
12386;DHT22;6257;57.634;18.310;2023-07-20T07:05:36;15.90;99.90
12386;DHT22;6257;57.634;18.310;2023-07-20T07:08:04;15.90;99.90
12386;DHT22;6257;57.634;18.310;2023-07-20T07:10:31;15.90;99.90
12386;DHT22;6257;57.634;18.310;2023-07-20T07:12:59;15.80;99.90
12386;DHT22;6257;57.634;18.310;2023-07-20T07:15:27;18.60;99.90
12386;DHT22;6257;57.634;18.310;2023-07-20T07:17:54;15.80;99.90
12386;DHT22;6257;57.634;18.310;2023-07-20T07:20:22;15.90;99.90
12386;DHT22;6257;57.634;18.310;2023-07-20T07:22:50;15.90;99.90
12386;DHT22;6257;57.634;18.310;2023-07-20T07:25:18;16.10;99.90
12386;DHT22;6257;57.634;18.310;2023-07-20T07:27:45;16.50;99.90
12386;DHT22;6257;57.634;18.310;2023-07-20T07:30:13;16.70;99.90
12386;DHT22;6257;57.634;18.310;2023-07-20T07:32:42;16.90;99.90
12386;DHT22;6257;57.634;18.310;2023-07-20T07:37:37;17.20;99.90
12386;DHT22;6257;57.634;18.310;2023-07-20T07:40:05;17.10;99.90
12386;DHT22;6257;57.634;18.310;2023-07-20T07:42:33;17.40;99.90
12386;DHT22;6257;57.634;18.310;2023-07-20T07:45:00;17.70;99.90
12386;DHT22;6257;57.634;18.310;2023-07-20T07:47:27;17.90;99.90
12386;DHT22;6257;57.634;18.310;2023-07-20T07:52:23;17.90;99.90
12386;DHT22;6257;57.634;18.310;2023-07-20T07:54:50;17.80;99.90
12386;DHT22;6257;57.634;18.310;2023-07-20T07:57:17;17.90;99.90
12386;DHT22;6257;57.634;18.310;2023-07-20T07:59:44;17.80;99.90
12386;DHT22;6257;57.634;18.310;2023-07-20T08:02:11;17.90;99.90
12386;DHT22;6257;57.634;18.310;2023-07-20T08:04:38;17.80;99.90
12386;DHT22;6257;57.634;18.310;2023-07-20T08:09:35;18.40;99.90
12386;DHT22;6257;57.634;18.310;2023-07-20T08:12:02;18.80;99.90
12386;DHT22;6257;57.634;18.310;2023-07-20T08:14:30;18.80;99.90
12386;DHT22;6257;57.634;18.310;2023-07-20T08:16:57;18.70;99.90
12386;DHT22;6257;57.634;18.310;2023-07-20T08:19:26;18.70;99.90
12386;DHT22;6257;57.634;18.310;2023-07-20T08:21:53;19.10;99.90
12386;DHT22;6257;57.634;18.310;2023-07-20T08:24:22;19.30;99.90
12386;DHT22;6257;57.634;18.310;2023-07-20T08:26:49;19.40;99.90
12386;DHT22;6257;57.634;18.310;2023-07-20T08:29:16;19.60;99.90
12386;DHT22;6257;57.634;18.310;2023-07-20T08:31:43;19.50;99.90
12386;DHT22;6257;57.634;18.310;2023-07-20T08:34:10;19.10;99.90
12386;DHT22;6257;57.634;18.310;2023-07-20T08:36:37;19.00;99.90
12386;DHT22;6257;57.634;18.310;2023-07-20T08:39:04;19.60;99.90
12386;DHT22;6257;57.634;18.310;2023-07-20T08:41:33;20.30;99.90
12386;DHT22;6257;57.634;18.310;2023-07-20T08:44:01;20.20;99.90
12386;DHT22;6257;57.634;18.310;2023-07-20T08:46:28;19.80;99.90
12386;DHT22;6257;57.634;18.310;2023-07-20T08:48:56;19.80;99.90
12386;DHT22;6257;57.634;18.310;2023-07-20T08:51:25;19.70;99.90
12386;DHT22;6257;57.634;18.310;2023-07-20T08:53:52;19.00;99.90
12386;DHT22;6257;57.634;18.310;2023-07-20T08:56:20;19.00;99.90
12386;DHT22;6257;57.634;18.310;2023-07-20T08:58:49;19.00;99.90
12386;DHT22;6257;57.634;18.310;2023-07-20T09:01:18;19.00;99.90
12386;DHT22;6257;57.634;18.310;2023-07-20T09:03:46;18.90;99.90
12386;DHT22;6257;57.634;18.310;2023-07-20T09:06:13;18.80;99.90
12386;DHT22;6257;57.634;18.310;2023-07-20T09:08:40;18.70;99.90
12386;DHT22;6257;57.634;18.310;2023-07-20T09:11:11;18.60;99.90
12386;DHT22;6257;57.634;18.310;2023-07-20T09:13:39;18.40;99.90
12386;DHT22;6257;57.634;18.310;2023-07-20T09:16:07;18.20;99.90
12386;DHT22;6257;57.634;18.310;2023-07-20T09:18:34;18.40;99.90
12386;DHT22;6257;57.634;18.310;2023-07-20T09:21:03;16.60;99.90
12386;DHT22;6257;57.634;18.310;2023-07-20T09:23:32;18.60;99.90
12386;DHT22;6257;57.634;18.310;2023-07-20T09:25:59;18.70;99.90
12386;DHT22;6257;57.634;18.310;2023-07-20T09:28:26;18.60;99.90
12386;DHT22;6257;57.634;18.310;2023-07-20T09:30:54;18.90;99.90
12386;DHT22;6257;57.634;18.310;2023-07-20T09:33:24;19.10;99.90
12386;DHT22;6257;57.634;18.310;2023-07-20T09:35:51;18.70;99.90
12386;DHT22;6257;57.634;18.310;2023-07-20T09:38:18;18.50;99.90
12386;DHT22;6257;57.634;18.310;2023-07-20T09:40:46;18.50;99.90
12386;DHT22;6257;57.634;18.310;2023-07-20T09:43:16;18.60;99.90
12386;DHT22;6257;57.634;18.310;2023-07-20T09:45:43;18.90;99.90
12386;DHT22;6257;57.634;18.310;2023-07-20T09:48:11;18.80;99.90
12386;DHT22;6257;57.634;18.310;2023-07-20T09:50:49;18.70;99.90
12386;DHT22;6257;57.634;18.310;2023-07-20T09:53:17;18.30;99.90
12386;DHT22;6257;57.634;18.310;2023-07-20T09:55:45;18.20;99.90
12386;DHT22;6257;57.634;18.310;2023-07-20T09:58:13;18.30;99.90
12386;DHT22;6257;57.634;18.310;2023-07-20T10:00:42;18.30;99.90
12386;DHT22;6257;57.634;18.310;2023-07-20T10:03:11;18.30;99.90
12386;DHT22;6257;57.634;18.310;2023-07-20T10:05:43;18.30;99.90
12386;DHT22;6257;57.634;18.310;2023-07-20T10:08:12;18.30;99.90
12386;DHT22;6257;57.634;18.310;2023-07-20T10:10:41;18.30;99.90
12386;DHT22;6257;57.634;18.310;2023-07-20T10:13:14;18.40;99.90
12386;DHT22;6257;57.634;18.310;2023-07-20T10:15:46;18.30;99.90
12386;DHT22;6257;57.634;18.310;2023-07-20T10:18:20;18.30;99.90
12386;DHT22;6257;57.634;18.310;2023-07-20T10:20:51;18.30;99.90
12386;DHT22;6257;57.634;18.310;2023-07-20T10:23:21;18.20;99.90
12386;DHT22;6257;57.634;18.310;2023-07-20T10:25:48;18.30;99.90
12386;DHT22;6257;57.634;18.310;2023-07-20T10:28:17;18.20;99.90
12386;DHT22;6257;57.634;18.310;2023-07-20T10:30:44;18.40;99.90
12386;DHT22;6257;57.634;18.310;2023-07-20T10:33:12;18.60;99.90
12386;DHT22;6257;57.634;18.310;2023-07-20T10:35:54;18.80;99.90
12386;DHT22;6257;57.634;18.310;2023-07-20T10:38:39;18.60;99.90
12386;DHT22;6257;57.634;18.310;2023-07-20T10:41:16;18.60;99.90
12386;DHT22;6257;57.634;18.310;2023-07-20T10:43:44;18.80;99.90
12386;DHT22;6257;57.634;18.310;2023-07-20T10:46:11;18.80;99.90
12386;DHT22;6257;57.634;18.310;2023-07-20T10:49:00;18.70;99.90
12386;DHT22;6257;57.634;18.310;2023-07-20T10:51:29;18.90;99.90
12386;DHT22;6257;57.634;18.310;2023-07-20T10:53:56;19.00;99.90
12386;DHT22;6257;57.634;18.310;2023-07-20T10:56:26;18.60;99.90
12386;DHT22;6257;57.634;18.310;2023-07-20T10:58:58;18.60;99.90
12386;DHT22;6257;57.634;18.310;2023-07-20T11:01:28;18.90;99.90
12386;DHT22;6257;57.634;18.310;2023-07-20T11:03:58;19.10;99.90
12386;DHT22;6257;57.634;18.310;2023-07-20T11:06:33;19.10;99.90
12386;DHT22;6257;57.634;18.310;2023-07-20T11:09:08;19.10;99.90
12386;DHT22;6257;57.634;18.310;2023-07-20T11:11:37;19.10;99.90
12386;DHT22;6257;57.634;18.310;2023-07-20T11:14:06;19.00;99.90
12386;DHT22;6257;57.634;18.310;2023-07-20T11:16:40;18.80;99.90
12386;DHT22;6257;57.634;18.310;2023-07-20T11:19:15;18.70;99.90
12386;DHT22;6257;57.634;18.310;2023-07-20T11:21:49;18.80;99.90
12386;DHT22;6257;57.634;18.310;2023-07-20T11:24:16;17.90;99.90
12386;DHT22;6257;57.634;18.310;2023-07-20T11:26:44;18.90;99.90
12386;DHT22;6257;57.634;18.310;2023-07-20T11:29:12;18.90;99.90
12386;DHT22;6257;57.634;18.310;2023-07-20T11:31:40;19.00;99.90
12386;DHT22;6257;57.634;18.310;2023-07-20T11:34:10;19.00;99.90
12386;DHT22;6257;57.634;18.310;2023-07-20T11:36:39;19.00;99.90
12386;DHT22;6257;57.634;18.310;2023-07-20T11:39:09;18.90;99.90
12386;DHT22;6257;57.634;18.310;2023-07-20T11:41:36;19.00;99.90
12386;DHT22;6257;57.634;18.310;2023-07-20T11:44:04;19.00;99.90
12386;DHT22;6257;57.634;18.310;2023-07-20T11:46:32;18.90;99.90
12386;DHT22;6257;57.634;18.310;2023-07-20T11:48:59;19.10;99.90
12386;DHT22;6257;57.634;18.310;2023-07-20T11:51:27;19.20;99.90
12386;DHT22;6257;57.634;18.310;2023-07-20T11:53:55;19.10;99.90
12386;DHT22;6257;57.634;18.310;2023-07-20T11:56:24;18.80;99.90
12386;DHT22;6257;57.634;18.310;2023-07-20T11:58:55;18.80;99.90
12386;DHT22;6257;57.634;18.310;2023-07-20T12:01:25;18.70;99.90
12386;DHT22;6257;57.634;18.310;2023-07-20T12:03:55;18.80;99.90
12386;DHT22;6257;57.634;18.310;2023-07-20T12:06:24;18.70;99.90
12386;DHT22;6257;57.634;18.310;2023-07-20T12:08:55;18.90;99.90
12386;DHT22;6257;57.634;18.310;2023-07-20T12:11:35;19.10;99.90
12386;DHT22;6257;57.634;18.310;2023-07-20T12:14:03;19.10;99.90
12386;DHT22;6257;57.634;18.310;2023-07-20T12:16:30;19.20;99.90
12386;DHT22;6257;57.634;18.310;2023-07-20T12:19:02;19.30;99.90
12386;DHT22;6257;57.634;18.310;2023-07-20T12:21:29;19.10;99.90
12386;DHT22;6257;57.634;18.310;2023-07-20T12:23:57;19.20;99.90
12386;DHT22;6257;57.634;18.310;2023-07-20T12:26:25;19.10;99.90
12386;DHT22;6257;57.634;18.310;2023-07-20T12:28:54;19.10;99.90
12386;DHT22;6257;57.634;18.310;2023-07-20T12:31:22;19.10;99.90
12386;DHT22;6257;57.634;18.310;2023-07-20T12:33:50;19.10;99.90
12386;DHT22;6257;57.634;18.310;2023-07-20T12:36:18;19.00;99.90
12386;DHT22;6257;57.634;18.310;2023-07-20T12:38:45;18.90;99.90
12386;DHT22;6257;57.634;18.310;2023-07-20T12:41:13;19.00;99.90
12386;DHT22;6257;57.634;18.310;2023-07-20T12:43:40;19.20;99.90
12386;DHT22;6257;57.634;18.310;2023-07-20T12:46:09;19.30;99.90
12386;DHT22;6257;57.634;18.310;2023-07-20T12:48:37;19.10;99.90
12386;DHT22;6257;57.634;18.310;2023-07-20T12:51:06;19.10;99.90
12386;DHT22;6257;57.634;18.310;2023-07-20T12:53:33;19.10;99.90
12386;DHT22;6257;57.634;18.310;2023-07-20T12:56:00;19.30;99.90
12386;DHT22;6257;57.634;18.310;2023-07-20T12:58:27;19.40;99.90
12386;DHT22;6257;57.634;18.310;2023-07-20T13:00:54;19.30;99.90
12386;DHT22;6257;57.634;18.310;2023-07-20T13:03:23;19.10;99.90
12386;DHT22;6257;57.634;18.310;2023-07-20T13:05:50;19.20;99.90
12386;DHT22;6257;57.634;18.310;2023-07-20T13:08:17;19.30;99.90
12386;DHT22;6257;57.634;18.310;2023-07-20T13:10:45;19.20;99.90
12386;DHT22;6257;57.634;18.310;2023-07-20T13:13:12;19.20;99.90
12386;DHT22;6257;57.634;18.310;2023-07-20T13:15:43;19.40;99.90
12386;DHT22;6257;57.634;18.310;2023-07-20T13:18:12;19.50;99.90
12386;DHT22;6257;57.634;18.310;2023-07-20T13:20:40;19.40;99.90
12386;DHT22;6257;57.634;18.310;2023-07-20T13:23:07;19.20;99.90
12386;DHT22;6257;57.634;18.310;2023-07-20T13:25:34;19.30;99.90
12386;DHT22;6257;57.634;18.310;2023-07-20T13:28:01;19.40;99.90
12386;DHT22;6257;57.634;18.310;2023-07-20T13:30:28;19.60;99.90
12386;DHT22;6257;57.634;18.310;2023-07-20T13:32:55;19.60;99.90
12386;DHT22;6257;57.634;18.310;2023-07-20T13:35:22;19.60;99.90
12386;DHT22;6257;57.634;18.310;2023-07-20T13:37:51;19.60;99.90
12386;DHT22;6257;57.634;18.310;2023-07-20T13:40:18;19.20;99.90
12386;DHT22;6257;57.634;18.310;2023-07-20T13:42:45;19.90;99.90
12386;DHT22;6257;57.634;18.310;2023-07-20T13:45:12;19.90;99.90
12386;DHT22;6257;57.634;18.310;2023-07-20T13:47:39;20.00;99.90
12386;DHT22;6257;57.634;18.310;2023-07-20T13:50:07;20.00;99.90
12386;DHT22;6257;57.634;18.310;2023-07-20T13:52:34;20.10;99.90
12386;DHT22;6257;57.634;18.310;2023-07-20T13:55:04;20.00;99.90
12386;DHT22;6257;57.634;18.310;2023-07-20T13:57:31;19.80;99.90
12386;DHT22;6257;57.634;18.310;2023-07-20T13:59:58;19.50;99.90
12386;DHT22;6257;57.634;18.310;2023-07-20T14:02:26;19.50;99.90
12386;DHT22;6257;57.634;18.310;2023-07-20T14:04:53;19.80;99.90
12386;DHT22;6257;57.634;18.310;2023-07-20T14:07:21;20.10;99.90
12386;DHT22;6257;57.634;18.310;2023-07-20T14:09:48;20.30;99.90
12386;DHT22;6257;57.634;18.310;2023-07-20T14:14:44;20.20;99.90
12386;DHT22;6257;57.634;18.310;2023-07-20T14:17:11;19.90;99.90
12386;DHT22;6257;57.634;18.310;2023-07-20T14:19:38;19.80;99.90
12386;DHT22;6257;57.634;18.310;2023-07-20T14:22:06;19.80;99.90
12386;DHT22;6257;57.634;18.310;2023-07-20T14:24:33;19.70;99.90
12386;DHT22;6257;57.634;18.310;2023-07-20T14:27:00;19.60;99.90
12386;DHT22;6257;57.634;18.310;2023-07-20T14:29:29;19.60;99.90
12386;DHT22;6257;57.634;18.310;2023-07-20T14:31:57;19.60;99.90
12386;DHT22;6257;57.634;18.310;2023-07-20T14:34:24;19.30;99.90
12386;DHT22;6257;57.634;18.310;2023-07-20T14:36:52;19.20;99.90
12386;DHT22;6257;57.634;18.310;2023-07-20T14:39:19;19.10;99.90
12386;DHT22;6257;57.634;18.310;2023-07-20T14:41:46;19.00;99.90
12386;DHT22;6257;57.634;18.310;2023-07-20T14:44:13;18.90;99.90
12386;DHT22;6257;57.634;18.310;2023-07-20T14:46:43;19.00;99.90
12386;DHT22;6257;57.634;18.310;2023-07-20T14:49:10;19.10;99.90
12386;DHT22;6257;57.634;18.310;2023-07-20T14:51:37;19.20;99.90
12386;DHT22;6257;57.634;18.310;2023-07-20T14:54:09;19.30;99.90
12386;DHT22;6257;57.634;18.310;2023-07-20T14:56:38;19.40;99.90
12386;DHT22;6257;57.634;18.310;2023-07-20T14:59:05;19.50;99.90
12386;DHT22;6257;57.634;18.310;2023-07-20T15:01:32;19.50;99.90
12386;DHT22;6257;57.634;18.310;2023-07-20T15:04:00;19.50;99.90
12386;DHT22;6257;57.634;18.310;2023-07-20T15:06:28;19.60;99.90
12386;DHT22;6257;57.634;18.310;2023-07-20T15:08:56;19.40;99.90
12386;DHT22;6257;57.634;18.310;2023-07-20T15:11:23;19.40;99.90
12386;DHT22;6257;57.634;18.310;2023-07-20T15:13:50;19.30;99.90
12386;DHT22;6257;57.634;18.310;2023-07-20T15:16:17;19.20;99.90
12386;DHT22;6257;57.634;18.310;2023-07-20T15:18:44;19.30;99.90
12386;DHT22;6257;57.634;18.310;2023-07-20T15:21:13;19.40;99.90
12386;DHT22;6257;57.634;18.310;2023-07-20T15:23:40;19.50;99.90
12386;DHT22;6257;57.634;18.310;2023-07-20T15:26:07;19.60;99.90
12386;DHT22;6257;57.634;18.310;2023-07-20T15:28:34;19.50;99.90
12386;DHT22;6257;57.634;18.310;2023-07-20T15:31:02;19.50;99.90
12386;DHT22;6257;57.634;18.310;2023-07-20T15:33:29;19.40;99.90
12386;DHT22;6257;57.634;18.310;2023-07-20T15:35:57;19.30;99.90
12386;DHT22;6257;57.634;18.310;2023-07-20T15:40:52;19.20;99.90
12386;DHT22;6257;57.634;18.310;2023-07-20T15:43:21;19.20;99.90
12386;DHT22;6257;57.634;18.310;2023-07-20T15:45:48;19.20;99.90
12386;DHT22;6257;57.634;18.310;2023-07-20T15:48:16;19.30;99.90
12386;DHT22;6257;57.634;18.310;2023-07-20T15:50:45;19.30;99.90
12386;DHT22;6257;57.634;18.310;2023-07-20T15:53:12;19.30;99.90
12386;DHT22;6257;57.634;18.310;2023-07-20T15:55:41;19.20;99.90
12386;DHT22;6257;57.634;18.310;2023-07-20T15:58:08;19.20;99.90
12386;DHT22;6257;57.634;18.310;2023-07-20T16:00:35;19.30;99.90
12386;DHT22;6257;57.634;18.310;2023-07-20T16:03:03;19.80;99.90
12386;DHT22;6257;57.634;18.310;2023-07-20T16:05:31;19.20;99.90
12386;DHT22;6257;57.634;18.310;2023-07-20T16:07:58;19.10;99.90
12386;DHT22;6257;57.634;18.310;2023-07-20T16:10:25;19.10;99.90
12386;DHT22;6257;57.634;18.310;2023-07-20T16:12:53;19.00;99.90
12386;DHT22;6257;57.634;18.310;2023-07-20T16:15:20;18.90;99.90
12386;DHT22;6257;57.634;18.310;2023-07-20T16:17:48;18.90;99.90
12386;DHT22;6257;57.634;18.310;2023-07-20T16:20:15;18.90;99.90
12386;DHT22;6257;57.634;18.310;2023-07-20T16:22:42;18.80;99.90
12386;DHT22;6257;57.634;18.310;2023-07-20T16:25:10;18.80;99.90
12386;DHT22;6257;57.634;18.310;2023-07-20T16:27:37;18.70;99.90
12386;DHT22;6257;57.634;18.310;2023-07-20T16:30:07;18.70;99.90
12386;DHT22;6257;57.634;18.310;2023-07-20T16:32:34;18.70;99.90
12386;DHT22;6257;57.634;18.310;2023-07-20T16:35:01;18.70;99.90
12386;DHT22;6257;57.634;18.310;2023-07-20T16:37:28;18.60;99.90
12386;DHT22;6257;57.634;18.310;2023-07-20T16:39:55;18.50;99.90